Time;durP1;ratioP1;P1;durP2;ratioP2;P2;SDS_P1;SDS_P2;PMS_P1;PMS_P2;Temp;Humidity;BMP_temperature;BMP_pressure;BME280_temperature;BME280_humidity;BME280_pressure;Samples;Min_cycle;Max_cycle;Signal;HPM_P1;HPM_P2
2022/01/13 00:01:35;;;;;;;474.38;54.20;;;5.00;99.90;;;;;;5008643;28;20073;-58
2022/01/13 00:04:01;;;;;;;482.95;58.90;;;5.00;99.90;;;;;;5016035;28;20489;-58
2022/01/13 00:06:27;;;;;;;433.17;51.65;;;5.00;99.90;;;;;;4991772;28;20052;-58
2022/01/13 00:08:53;;;;;;;429.13;54.22;;;5.00;99.90;;;;;;5010426;28;20056;-58
2022/01/13 00:11:20;;;;;;;509.48;58.47;;;5.00;99.90;;;;;;5002138;28;20462;-58
2022/01/13 00:16:41;;;;;;;381.70;48.67;;;5.00;99.90;;;;;;4990237;28;20037;-57
2022/01/13 00:21:52;;;;;;;320.27;44.35;;;5.00;99.90;;;;;;4993665;28;20127;-57
2022/01/13 00:24:18;;;;;;;272.90;38.47;;;4.90;99.90;;;;;;5014488;28;20139;-58
2022/01/13 00:26:46;;;;;;;255.20;39.30;;;4.90;99.90;;;;;;4990766;28;20065;-58
2022/01/13 00:29:13;;;;;;;251.98;39.25;;;4.90;99.90;;;;;;4994814;28;20060;-58
2022/01/13 00:31:41;;;;;;;250.27;40.00;;;4.90;99.90;;;;;;4989228;28;20096;-58
2022/01/13 00:34:08;;;;;;;269.40;41.17;;;4.90;99.90;;;;;;4997860;28;20431;-57
2022/01/13 00:36:38;;;;;;;230.82;38.92;;;4.90;99.90;;;;;;4979676;28;20144;-58
2022/01/13 00:39:06;;;;;;;246.50;40.75;;;4.90;99.90;;;;;;5011880;28;20069;-58
2022/01/13 00:41:32;;;;;;;269.30;38.72;;;5.00;99.90;;;;;;4997691;28;20053;-58
2022/01/13 00:44:02;;;;;;;261.65;42.00;;;5.00;99.90;;;;;;5008026;28;20046;-58
2022/01/13 00:46:39;;;;;;;297.08;42.65;;;5.00;99.90;;;;;;4995273;28;20080;-58
2022/01/13 00:49:06;;;;;;;326.08;45.70;;;5.00;99.90;;;;;;5023147;28;20064;-58
2022/01/13 00:51:33;;;;;;;324.13;43.85;;;5.00;99.90;;;;;;5024668;28;20041;-58
2022/01/13 00:54:04;;;;;;;352.30;48.60;;;5.00;99.90;;;;;;5021558;28;20069;-57
2022/01/13 00:56:32;;;;;;;319.90;46.25;;;5.00;99.90;;;;;;5021034;28;20088;-58
2022/01/13 00:59:00;;;;;;;343.88;47.10;;;5.00;99.90;;;;;;5026584;28;20290;-57
2022/01/13 01:01:26;;;;;;;338.92;46.70;;;5.00;99.90;;;;;;5025391;28;20057;-57
2022/01/13 01:03:52;;;;;;;296.63;43.03;;;5.00;99.90;;;;;;5026533;28;20037;-58
2022/01/13 01:06:20;;;;;;;362.98;47.42;;;5.00;99.90;;;;;;5023709;28;20042;-58
2022/01/13 01:08:46;;;;;;;303.80;46.30;;;5.00;99.90;;;;;;5026799;28;20106;-61
2022/01/13 01:11:12;;;;;;;291.35;42.00;;;5.00;99.90;;;;;;4985577;28;20050;-61
2022/01/13 01:13:39;;;;;;;313.02;46.40;;;5.00;99.90;;;;;;5024090;28;20139;-57
2022/01/13 01:16:10;;;;;;;298.55;43.95;;;4.90;99.90;;;;;;5027423;28;20388;-57
2022/01/13 01:29:30;;;;;;;290.85;43.20;;;4.90;99.90;;;;;;5004647;28;20076;-58
2022/01/13 01:31:53;;;;;;;280.80;42.78;;;4.90;99.90;;;;;;5027390;28;20061;-58
2022/01/13 01:36:58;;;;;;;286.15;43.20;;;4.90;99.90;;;;;;5027448;28;20038;-58
2022/01/13 01:39:25;;;;;;;317.52;41.67;;;4.90;99.90;;;;;;5007129;28;20053;-58
2022/01/13 01:41:54;;;;;;;281.88;40.85;;;4.90;99.90;;;;;;4970274;28;20119;-58
2022/01/13 01:44:26;;;;;;;304.55;42.15;;;4.90;99.90;;;;;;5008091;28;20124;-58
2022/01/13 01:46:52;;;;;;;307.05;44.78;;;4.90;99.90;;;;;;5007387;28;20520;-58
2022/01/13 01:49:21;;;;;;;263.33;40.72;;;4.90;99.90;;;;;;5022760;28;20558;-58
2022/01/13 01:52:07;;;;;;;337.65;44.40;;;4.90;99.90;;;;;;5008022;28;20060;-58
2022/01/13 01:54:34;;;;;;;299.30;43.05;;;4.90;99.90;;;;;;4990629;28;20496;-61
2022/01/13 01:57:00;;;;;;;347.83;47.75;;;4.90;99.90;;;;;;5018420;28;20443;-61
2022/01/13 01:59:30;;;;;;;357.92;48.30;;;4.90;99.90;;;;;;5026935;28;20282;-61
2022/01/13 02:01:57;;;;;;;343.65;44.97;;;4.90;99.90;;;;;;4991774;28;20057;-61
2022/01/13 02:04:26;;;;;;;343.85;45.17;;;5.00;99.90;;;;;;5028251;28;20045;-61
2022/01/13 02:06:54;;;;;;;355.35;45.45;;;5.00;99.90;;;;;;5007480;28;20045;-61
2022/01/13 02:09:22;;;;;;;331.75;44.60;;;5.00;99.90;;;;;;5021268;28;20168;-60
2022/01/13 02:11:54;;;;;;;329.27;44.38;;;5.00;99.90;;;;;;5023142;28;20045;-60
2022/01/13 02:17:13;;;;;;;350.20;44.25;;;5.00;99.90;;;;;;5025990;28;20049;-61
2022/01/13 02:19:44;;;;;;;288.52;44.20;;;5.00;99.90;;;;;;5017530;28;20373;-61
2022/01/13 02:22:10;;;;;;;289.00;45.20;;;5.00;99.90;;;;;;5006952;28;20046;-61
2022/01/13 02:24:37;;;;;;;336.40;46.88;;;5.00;99.90;;;;;;4991301;28;20054;-61
2022/01/13 02:27:05;;;;;;;312.55;43.88;;;5.00;99.90;;;;;;5009855;28;20059;-61
2022/01/13 02:29:31;;;;;;;315.85;44.10;;;5.00;99.90;;;;;;5025047;28;20455;-61
2022/01/13 02:31:58;;;;;;;309.98;44.75;;;5.00;99.90;;;;;;4989922;28;20041;-61
2022/01/13 02:34:24;;;;;;;315.15;45.67;;;5.00;99.90;;;;;;5009048;28;20048;-61
2022/01/13 02:36:53;;;;;;;324.10;46.35;;;5.00;99.90;;;;;;5026978;28;20122;-61
2022/01/13 02:39:28;;;;;;;308.23;44.10;;;5.00;99.90;;;;;;5025412;28;20049;-61
2022/01/13 02:41:55;;;;;;;329.38;47.38;;;5.00;99.90;;;;;;5023026;28;20128;-61
2022/01/13 02:44:22;;;;;;;304.85;44.20;;;5.00;99.90;;;;;;5025055;28;20129;-61
2022/01/13 02:49:18;;;;;;;232.50;40.20;;;5.00;99.90;;;;;;5011363;28;20128;-61
2022/01/13 02:51:48;;;;;;;244.68;40.35;;;5.00;99.90;;;;;;5003308;28;20056;-61
2022/01/13 02:54:15;;;;;;;211.38;37.75;;;5.00;99.90;;;;;;5000935;28;20033;-61
2022/01/13 02:56:43;;;;;;;199.60;37.78;;;5.00;99.90;;;;;;5024968;28;20113;-61
2022/01/13 02:59:10;;;;;;;226.32;39.30;;;4.90;99.90;;;;;;5007342;28;20563;-58
2022/01/13 03:01:36;;;;;;;263.92;44.97;;;4.90;99.90;;;;;;5022887;28;20108;-58
2022/01/13 03:04:08;;;;;;;234.73;40.53;;;4.90;99.90;;;;;;5006111;28;20053;-58
2022/01/13 03:06:38;;;;;;;269.80;42.20;;;4.90;99.90;;;;;;4999870;28;20053;-61
2022/01/13 03:09:13;;;;;;;303.17;43.50;;;4.90;99.90;;;;;;4988194;28;20501;-62
2022/01/13 03:11:41;;;;;;;261.15;43.90;;;4.90;99.90;;;;;;4992008;28;20045;-62
2022/01/13 03:14:10;;;;;;;301.38;44.35;;;5.00;99.90;;;;;;4994072;28;20057;-62
2022/01/13 03:16:37;;;;;;;243.95;45.53;;;5.00;99.90;;;;;;5023565;28;20397;-61
2022/01/13 03:19:04;;;;;;;284.00;45.80;;;5.00;99.90;;;;;;5002921;28;20049;-61
2022/01/13 03:21:30;;;;;;;292.98;46.58;;;5.00;99.90;;;;;;4992639;28;20053;-61
2022/01/13 03:23:57;;;;;;;334.25;48.95;;;5.00;99.90;;;;;;5015513;28;20064;-61
2022/01/13 03:26:24;;;;;;;317.27;45.92;;;5.00;99.90;;;;;;5003336;28;20421;-61
2022/01/13 03:28:51;;;;;;;418.15;53.47;;;5.00;99.90;;;;;;4994395;28;20447;-61
2022/01/13 03:31:19;;;;;;;263.98;43.17;;;5.00;99.90;;;;;;5026157;28;20400;-61
2022/01/13 03:33:46;;;;;;;254.38;45.05;;;5.00;99.90;;;;;;5003471;28;20046;-61
2022/01/13 03:36:12;;;;;;;222.40;40.35;;;5.00;99.90;;;;;;5006143;28;20049;-61
2022/01/13 03:38:39;;;;;;;254.43;42.72;;;5.00;99.90;;;;;;5021419;28;20574;-61
2022/01/13 03:41:05;;;;;;;244.52;40.72;;;5.00;99.90;;;;;;5005271;28;20576;-61
2022/01/13 03:43:32;;;;;;;217.32;39.00;;;5.00;99.90;;;;;;4992110;28;20061;-61
2022/01/13 03:45:58;;;;;;;232.25;39.83;;;5.00;99.90;;;;;;5023643;28;20489;-61
2022/01/13 03:48:24;;;;;;;229.10;40.63;;;5.00;99.90;;;;;;5007435;28;20065;-61
2022/01/13 03:50:50;;;;;;;279.85;45.33;;;5.00;99.90;;;;;;5022576;28;20076;-61
2022/01/13 03:53:29;;;;;;;268.88;43.35;;;5.00;99.90;;;;;;5005420;28;20404;-61
2022/01/13 03:56:16;;;;;;;290.50;44.00;;;5.00;99.90;;;;;;5013157;28;20497;-58
2022/01/13 03:59:24;;;;;;;327.70;45.28;;;5.00;99.90;;;;;;4980422;28;20053;-58
2022/01/13 04:01:52;;;;;;;314.08;47.78;;;5.00;99.90;;;;;;4987988;28;20061;-57
2022/01/13 04:04:18;;;;;;;369.88;49.53;;;5.00;99.90;;;;;;5010039;28;20053;-61
2022/01/13 04:06:45;;;;;;;360.08;49.60;;;5.00;99.90;;;;;;4971791;28;20057;-61
2022/01/13 04:09:33;;;;;;;282.50;42.90;;;5.00;99.90;;;;;;4997358;28;20049;-61
2022/01/13 04:12:05;;;;;;;323.35;47.67;;;5.00;99.90;;;;;;5023133;28;20084;-61
2022/01/13 04:14:42;;;;;;;340.67;46.38;;;4.90;99.90;;;;;;5007184;28;20049;-61
2022/01/13 04:17:14;;;;;;;320.35;43.67;;;5.00;99.90;;;;;;5023037;28;20053;-61
2022/01/13 04:19:41;;;;;;;;;;;5.00;99.90;;;;;;5021614;28;20227;-58
2022/01/13 04:22:08;;;;;;;290.73;43.42;;;4.90;99.90;;;;;;5006840;28;19921;-58
2022/01/13 04:24:42;;;;;;;314.80;44.28;;;4.90;99.90;;;;;;5024090;28;20037;-58
2022/01/13 04:27:09;;;;;;;274.00;44.45;;;4.90;99.90;;;;;;5024584;28;20052;-58
2022/01/13 04:29:39;;;;;;;312.60;43.38;;;4.90;99.90;;;;;;4988375;28;20073;-59
2022/01/13 04:32:07;;;;;;;311.48;43.10;;;4.90;99.90;;;;;;5028424;28;20404;-58
2022/01/13 04:34:33;;;;;;;301.20;43.55;;;4.90;99.90;;;;;;5027655;28;20068;-61
2022/01/13 04:37:01;;;;;;;353.52;47.08;;;4.90;99.90;;;;;;5010756;28;20060;-61
2022/01/13 04:39:28;;;;;;;247.82;39.53;;;4.90;99.90;;;;;;5027623;28;20120;-61
2022/01/13 04:41:55;;;;;;;267.23;41.97;;;4.90;99.90;;;;;;5013434;28;20074;-61
2022/01/13 04:44:24;;;;;;;288.67;43.97;;;4.80;99.90;;;;;;5001023;28;20135;-59
2022/01/13 04:46:52;;;;;;;283.08;41.08;;;4.90;99.90;;;;;;5028612;28;20056;-58
2022/01/13 04:49:19;;;;;;;312.85;45.72;;;4.90;99.90;;;;;;5028122;28;20042;-57
2022/01/13 04:51:50;;;;;;;260.13;40.95;;;4.90;99.90;;;;;;5009178;28;20048;-58
2022/01/13 04:54:17;;;;;;;241.10;40.03;;;4.80;99.90;;;;;;5021021;28;20038;-58
2022/01/13 04:57:03;;;;;;;241.55;38.90;;;4.80;99.90;;;;;;4976828;28;20124;-58
2022/01/13 04:59:29;;;;;;;247.35;39.65;;;4.80;99.90;;;;;;5026168;28;20045;-58
2022/01/13 05:01:55;;;;;;;252.70;38.78;;;4.80;99.90;;;;;;5014321;28;20082;-60
2022/01/13 05:04:22;;;;;;;240.18;39.00;;;4.80;99.90;;;;;;5023508;28;20581;-58
2022/01/13 05:06:48;;;;;;;281.35;44.17;;;4.80;99.90;;;;;;5009199;28;20060;-59
2022/01/13 05:09:14;;;;;;;206.07;37.42;;;4.80;99.90;;;;;;4980918;28;20049;-57
2022/01/13 05:11:40;;;;;;;229.98;37.60;;;4.80;99.90;;;;;;5020390;28;20099;-57
2022/01/13 05:14:06;;;;;;;250.77;40.17;;;4.80;99.90;;;;;;5009057;28;20136;-58
2022/01/13 05:16:51;;;;;;;254.10;40.92;;;4.80;99.90;;;;;;5027772;28;20041;-58
2022/01/13 05:19:23;;;;;;;267.15;42.08;;;4.80;99.90;;;;;;5007718;28;20127;-60
2022/01/13 05:24:21;;;;;;;263.88;41.30;;;4.80;99.90;;;;;;5027152;28;20041;-61
2022/01/13 05:26:47;;;;;;;252.57;41.08;;;4.80;99.90;;;;;;5005656;28;20060;-61
2022/01/13 05:29:18;;;;;;;245.90;39.72;;;4.80;99.90;;;;;;5008466;28;20042;-61
2022/01/13 05:31:44;;;;;;;263.55;41.42;;;4.80;99.90;;;;;;5007108;28;20095;-61
2022/01/13 05:34:10;;;;;;;245.82;40.20;;;4.80;99.90;;;;;;5019340;28;20487;-57
2022/01/13 05:36:36;;;;;;;233.07;38.83;;;4.70;99.90;;;;;;5009144;28;20346;-58
2022/01/13 05:39:03;;;;;;;246.65;40.60;;;4.70;99.90;;;;;;5003753;28;20060;-58
2022/01/13 05:41:31;;;;;;;213.70;39.63;;;4.70;99.90;;;;;;5021457;28;20050;-58
2022/01/13 05:43:58;;;;;;;272.00;43.78;;;4.70;99.90;;;;;;5016654;28;20057;-58
2022/01/13 05:46:24;;;;;;;251.98;40.70;;;4.70;99.90;;;;;;4997141;28;20389;-58
2022/01/13 05:48:50;;;;;;;247.00;39.10;;;4.70;99.90;;;;;;5022087;28;20049;-57
2022/01/13 05:51:16;;;;;;;249.23;41.33;;;4.70;99.90;;;;;;5026346;28;20397;-58
2022/01/13 05:53:45;;;;;;;215.20;36.78;;;4.70;99.90;;;;;;5025655;28;20045;-58
2022/01/13 05:56:11;;;;;;;272.42;39.10;;;4.70;99.90;;;;;;4994183;28;20058;-57
2022/01/13 05:58:38;;;;;;;225.02;36.90;;;4.70;99.90;;;;;;5021849;28;20484;-58
2022/01/13 06:01:04;;;;;;;231.63;37.25;;;4.70;99.90;;;;;;4992436;28;20108;-60
2022/01/13 06:03:31;;;;;;;235.48;36.10;;;4.70;99.90;;;;;;5021066;28;20056;-61
2022/01/13 06:05:57;;;;;;;252.60;37.70;;;4.60;99.90;;;;;;4971218;28;20510;-58
2022/01/13 06:08:23;;;;;;;264.40;39.83;;;4.70;99.90;;;;;;5003050;28;20084;-61
2022/01/13 06:10:50;;;;;;;246.00;39.80;;;4.60;99.90;;;;;;5000174;28;20045;-61
2022/01/13 06:13:16;;;;;;;228.88;37.70;;;4.60;99.90;;;;;;5008140;28;20057;-62
2022/01/13 06:15:42;;;;;;;249.95;39.63;;;4.70;99.90;;;;;;5007593;28;20073;-61
2022/01/13 06:18:14;;;;;;;238.82;39.97;;;4.70;99.90;;;;;;4986156;28;20132;-63
2022/01/13 06:20:41;;;;;;;;;;;4.70;99.90;;;;;;5008037;28;20065;-60
2022/01/13 06:23:08;;;;;;;206.73;35.72;;;4.70;99.90;;;;;;5023963;28;19921;-59
2022/01/13 06:25:35;;;;;;;238.38;37.72;;;4.70;99.90;;;;;;4988572;28;20111;-59
2022/01/13 06:28:03;;;;;;;312.98;42.30;;;4.70;99.90;;;;;;5000657;28;20042;-59
2022/01/13 06:30:30;;;;;;;291.73;40.90;;;4.70;99.90;;;;;;5024130;28;20121;-59
2022/01/13 06:32:57;;;;;;;281.00;41.15;;;4.70;99.90;;;;;;5027060;28;20037;-59
2022/01/13 06:35:24;;;;;;;255.95;39.72;;;4.70;99.90;;;;;;4980602;28;20140;-59
2022/01/13 06:37:50;;;;;;;241.35;38.78;;;4.70;99.90;;;;;;5025613;28;20381;-58
2022/01/13 06:40:16;;;;;;;298.60;42.58;;;4.70;99.90;;;;;;5026318;28;20057;-58
2022/01/13 06:42:43;;;;;;;273.45;39.55;;;4.80;99.90;;;;;;5026022;28;20099;-59
2022/01/13 06:45:10;;;;;;;241.55;38.15;;;4.70;99.90;;;;;;5001348;28;20057;-58
2022/01/13 06:47:38;;;;;;;263.60;40.97;;;4.70;99.90;;;;;;4983812;28;20037;-58
2022/01/13 06:50:06;;;;;;;240.43;38.72;;;4.70;99.90;;;;;;4985956;28;20048;-58
2022/01/13 06:52:32;;;;;;;249.23;38.78;;;4.70;99.90;;;;;;4985511;28;20042;-58
2022/01/13 06:54:58;;;;;;;231.88;35.63;;;4.70;99.90;;;;;;5020974;28;20500;-58
2022/01/13 06:57:24;;;;;;;254.07;39.20;;;4.70;99.90;;;;;;4974265;28;20555;-59
2022/01/13 06:59:50;;;;;;;249.10;40.38;;;4.70;99.90;;;;;;5017001;28;20276;-58
2022/01/13 07:02:16;;;;;;;212.25;36.42;;;4.70;99.90;;;;;;5020893;28;20563;-59
2022/01/13 07:04:43;;;;;;;248.93;37.47;;;4.70;99.90;;;;;;5021530;28;20049;-62
2022/01/13 07:07:10;;;;;;;233.68;37.55;;;4.70;99.90;;;;;;5001773;28;20096;-61
2022/01/13 07:09:36;;;;;;;233.90;39.13;;;4.70;99.90;;;;;;4987568;28;20080;-62
2022/01/13 07:12:03;;;;;;;233.05;38.88;;;4.70;99.90;;;;;;4985574;28;20413;-58
2022/01/13 07:14:29;;;;;;;217.73;36.72;;;4.70;99.90;;;;;;5000378;28;20057;-61
2022/01/13 07:16:55;;;;;;;262.42;40.03;;;4.60;99.90;;;;;;4999731;28;20509;-62
2022/01/13 07:19:21;;;;;;;217.00;39.05;;;4.70;99.90;;;;;;5019900;28;20046;-61
2022/01/13 07:21:48;;;;;;;192.18;36.13;;;4.70;99.90;;;;;;5014496;28;20103;-61
2022/01/13 07:24:14;;;;;;;201.13;37.78;;;4.70;99.90;;;;;;5002172;28;20081;-58
2022/01/13 07:26:40;;;;;;;197.65;38.42;;;4.70;99.90;;;;;;5013202;28;20057;-58
2022/01/13 07:29:08;;;;;;;227.50;38.90;;;4.70;99.90;;;;;;4995506;28;20046;-62
2022/01/13 07:31:38;;;;;;;197.25;38.42;;;4.70;99.90;;;;;;4998691;28;20082;-61
2022/01/13 07:34:05;;;;;;;209.68;39.35;;;4.70;99.90;;;;;;5018105;28;20041;-60
2022/01/13 07:36:32;;;;;;;206.75;39.70;;;4.70;99.90;;;;;;5000780;28;20507;-57
2022/01/13 07:38:58;;;;;;;201.52;37.03;;;4.70;99.90;;;;;;5004683;28;20053;-61
2022/01/13 07:41:24;;;;;;;182.95;37.78;;;4.70;99.90;;;;;;5004063;28;20561;-62
2022/01/13 07:43:54;;;;;;;228.13;39.17;;;4.70;99.90;;;;;;4988849;28;20407;-61
2022/01/13 07:46:23;;;;;;;225.13;39.38;;;4.80;99.90;;;;;;5002618;28;20056;-58
2022/01/13 07:48:50;;;;;;;197.52;37.83;;;4.80;99.90;;;;;;5005863;28;20207;-58
2022/01/13 07:51:17;;;;;;;234.88;39.38;;;4.70;99.90;;;;;;5001199;28;20400;-62
2022/01/13 07:53:43;;;;;;;196.43;36.88;;;4.80;99.90;;;;;;5003167;28;20046;-62
2022/01/13 07:56:09;;;;;;;239.45;39.55;;;4.80;99.90;;;;;;4990128;28;20041;-58
2022/01/13 07:58:35;;;;;;;256.55;40.22;;;4.80;99.90;;;;;;5022220;28;20057;-59
2022/01/13 08:01:04;;;;;;;205.95;38.75;;;4.80;99.90;;;;;;4997809;28;20050;-58
2022/01/13 08:03:30;;;;;;;221.55;39.50;;;4.80;99.90;;;;;;5002219;28;20049;-58
2022/01/13 08:05:58;;;;;;;228.48;38.60;;;4.80;99.90;;;;;;5018925;28;20087;-58
2022/01/13 08:08:25;;;;;;;202.75;38.05;;;4.80;99.90;;;;;;4983132;28;20053;-58
2022/01/13 08:10:51;;;;;;;224.20;40.15;;;4.80;99.90;;;;;;5011665;28;20401;-58
2022/01/13 08:13:17;;;;;;;183.90;35.78;;;4.90;99.90;;;;;;5017972;28;20058;-58
2022/01/13 08:15:44;;;;;;;196.55;37.40;;;4.80;99.90;;;;;;4980839;28;20056;-58
2022/01/13 08:20:54;;;;;;;191.35;34.97;;;4.80;99.90;;;;;;5010025;28;20077;-60
2022/01/13 08:23:20;;;;;;;181.00;37.03;;;4.90;99.90;;;;;;5011673;28;20553;-60
2022/01/13 08:25:47;;;;;;;196.85;37.70;;;4.90;99.90;;;;;;5006216;28;20411;-59
2022/01/13 08:28:13;;;;;;;187.95;37.70;;;4.90;99.90;;;;;;4991018;28;20053;-59
2022/01/13 08:30:39;;;;;;;214.75;38.47;;;4.90;99.90;;;;;;4975683;28;20409;-59
2022/01/13 08:33:06;;;;;;;193.38;37.90;;;4.90;99.90;;;;;;5019902;28;20508;-59
2022/01/13 08:35:32;;;;;;;230.50;41.63;;;4.90;99.90;;;;;;4986052;28;20050;-59
2022/01/13 08:38:05;;;;;;;200.18;37.22;;;4.90;99.90;;;;;;5004422;28;20391;-59
2022/01/13 08:40:34;;;;;;;196.65;36.85;;;4.90;99.90;;;;;;4986721;28;20188;-61
2022/01/13 08:43:02;;;;;;;221.77;38.78;;;5.00;99.90;;;;;;5023385;28;20064;-58
2022/01/13 08:45:28;;;;;;;196.23;38.08;;;5.00;99.90;;;;;;5022718;28;20478;-57
2022/01/13 08:47:55;;;;;;;197.70;39.00;;;5.00;99.90;;;;;;5021117;28;20391;-57
2022/01/13 08:50:21;;;;;;;181.32;37.88;;;5.00;99.90;;;;;;5005719;28;20447;-58
2022/01/13 08:52:47;;;;;;;188.40;39.15;;;5.00;99.90;;;;;;5002241;28;20047;-59
2022/01/13 08:55:13;;;;;;;186.70;38.50;;;5.00;99.90;;;;;;4985622;28;20073;-62
2022/01/13 08:57:39;;;;;;;204.77;39.83;;;5.00;99.90;;;;;;5017226;28;20650;-62
2022/01/13 09:00:09;;;;;;;205.40;40.45;;;5.00;99.90;;;;;;5016638;28;20695;-62
2022/01/13 09:02:35;;;;;;;190.18;37.63;;;5.00;99.90;;;;;;4999815;28;20053;-62
2022/01/13 09:05:02;;;;;;;215.13;39.10;;;5.00;99.90;;;;;;5022664;28;20449;-62
2022/01/13 09:07:29;;;;;;;189.23;38.65;;;5.10;99.90;;;;;;5023502;28;20056;-62
2022/01/13 09:09:56;;;;;;;191.00;38.67;;;5.10;99.90;;;;;;5000353;28;20045;-62
2022/01/13 09:12:22;;;;;;;180.00;38.22;;;5.10;99.90;;;;;;5020918;28;20075;-62
2022/01/13 09:14:50;;;;;;;179.32;36.75;;;5.10;99.90;;;;;;5005506;28;20158;-62
2022/01/13 09:17:23;;;;;;;178.13;37.75;;;5.10;99.90;;;;;;5025637;28;20088;-62
2022/01/13 09:19:51;;;;;;;196.40;39.72;;;5.10;99.90;;;;;;5021988;28;20056;-62
2022/01/13 09:22:18;;;;;;;195.88;37.67;;;5.20;99.90;;;;;;5007892;28;20056;-61
2022/01/13 09:24:44;;;;;;;172.38;36.03;;;5.20;99.90;;;;;;5025116;28;20465;-62
2022/01/13 09:27:12;;;;;;;190.15;39.45;;;5.20;99.90;;;;;;5022144;28;20050;-62
2022/01/13 09:29:38;;;;;;;184.38;37.78;;;5.20;99.90;;;;;;5010175;28;20046;-62
2022/01/13 09:32:05;;;;;;;208.45;41.25;;;5.20;99.90;;;;;;5007715;28;20053;-62
2022/01/13 09:34:31;;;;;;;210.93;41.85;;;5.30;99.90;;;;;;5027739;28;20048;-62
2022/01/13 09:36:57;;;;;;;178.68;40.47;;;5.30;99.90;;;;;;5009722;28;20123;-62
2022/01/13 09:39:24;;;;;;;184.13;39.30;;;5.30;99.90;;;;;;5025809;28;20049;-63
2022/01/13 09:41:51;;;;;;;182.52;40.55;;;5.40;99.90;;;;;;5004635;28;20596;-62
2022/01/13 09:44:17;;;;;;;205.25;39.78;;;5.40;99.90;;;;;;4998683;28;20532;-62
2022/01/13 09:46:45;;;;;;;172.38;38.22;;;5.40;99.90;;;;;;4999930;28;20068;-62
2022/01/13 09:49:11;;;;;;;209.13;42.67;;;5.40;99.90;;;;;;5025891;28;20500;-61
2022/01/13 09:51:44;;;;;;;190.02;41.22;;;5.50;99.90;;;;;;5002598;28;20067;-62
2022/01/13 09:54:12;;;;;;;204.75;41.13;;;5.50;99.90;;;;;;4997765;28;20060;-62
2022/01/13 09:56:38;;;;;;;187.52;42.15;;;5.60;99.90;;;;;;5016426;28;20440;-62
2022/01/13 09:59:06;;;;;;;179.40;39.88;;;5.60;99.90;;;;;;4981509;28;20054;-62
2022/01/13 10:01:32;;;;;;;194.55;40.83;;;5.60;99.90;;;;;;5022789;28;20056;-62
2022/01/13 10:03:59;;;;;;;182.10;41.30;;;5.60;99.90;;;;;;5019109;28;20468;-62
2022/01/13 10:06:25;;;;;;;193.43;41.70;;;5.60;99.90;;;;;;5018944;28;20045;-61
2022/01/13 10:08:54;;;;;;;196.82;41.20;;;5.70;99.90;;;;;;5017898;28;20060;-62
2022/01/13 10:11:47;;;;;;;185.40;41.13;;;5.60;99.90;;;;;;5009413;28;20058;-62
2022/01/13 10:17:02;;;;;;;191.20;40.35;;;5.70;99.90;;;;;;5027324;28;20050;-63
2022/01/13 10:19:47;;;;;;;182.85;39.20;;;5.70;99.90;;;;;;5027278;28;20573;-65
2022/01/13 10:22:19;;;;;;;182.95;40.95;;;5.70;99.90;;;;;;5007408;28;20060;-63
2022/01/13 10:24:52;;;;;;;200.73;42.33;;;5.70;99.90;;;;;;5006198;28;20049;-65
2022/01/13 10:27:27;;;;;;;192.70;39.72;;;5.80;99.90;;;;;;5022135;28;20045;-64
2022/01/13 10:29:56;;;;;;;209.63;43.92;;;5.80;99.90;;;;;;5007941;28;20158;-62
2022/01/13 10:32:32;;;;;;;182.50;41.03;;;5.80;99.90;;;;;;5004067;28;20124;-62
2022/01/13 10:34:58;;;;;;;178.77;41.67;;;5.80;99.90;;;;;;5019911;28;20438;-62
2022/01/13 10:37:32;;;;;;;172.05;38.70;;;5.80;99.90;;;;;;5025926;28;20084;-63
2022/01/13 10:40:25;;;;;;;166.45;39.05;;;5.90;99.90;;;;;;5023479;28;20148;-62
2022/01/13 10:45:30;;;;;;;197.38;38.63;;;5.90;99.90;;;;;;5005602;28;20060;-62
2022/01/13 10:48:15;;;;;;;192.02;41.35;;;5.90;99.90;;;;;;5007904;28;20041;-62
2022/01/13 10:50:47;;;;;;;176.30;40.90;;;5.90;99.90;;;;;;5013842;28;20061;-62
2022/01/13 10:53:23;;;;;;;189.00;39.58;;;5.90;99.90;;;;;;5025313;28;20064;-62
2022/01/13 10:55:52;;;;;;;166.30;38.70;;;6.00;99.90;;;;;;5022762;28;20118;-62
2022/01/13 10:58:24;;;;;;;133.15;36.42;;;6.00;99.90;;;;;;5003635;28;20053;-62
2022/01/13 11:00:51;;;;;;;125.07;34.05;;;6.00;99.90;;;;;;5022946;28;20053;-62
2022/01/13 11:03:20;;;;;;;133.32;33.25;;;6.00;99.90;;;;;;5006649;28;20041;-62
2022/01/13 11:05:56;;;;;;;150.27;36.78;;;6.00;99.90;;;;;;5003066;28;20484;-62
2022/01/13 11:08:39;;;;;;;151.13;36.38;;;6.00;99.90;;;;;;5022043;28;20560;-62
2022/01/13 11:11:05;;;;;;;137.88;35.35;;;6.00;99.90;;;;;;5022552;28;20095;-59
2022/01/13 11:13:39;;;;;;;157.90;37.95;;;6.00;99.90;;;;;;5023105;28;20049;-59
2022/01/13 11:16:05;;;;;;;149.25;36.08;;;6.00;99.90;;;;;;4998349;28;20111;-59
2022/01/13 11:18:33;;;;;;;143.02;35.22;;;6.00;99.90;;;;;;5026013;28;20144;-59
2022/01/13 11:21:02;;;;;;;135.00;34.55;;;6.00;99.90;;;;;;4999867;28;20116;-59
2022/01/13 11:23:28;;;;;;;130.02;35.05;;;5.90;99.90;;;;;;5018578;28;20436;-59
2022/01/13 11:25:56;;;;;;;138.95;37.08;;;5.90;99.90;;;;;;5024410;28;20049;-62
2022/01/13 11:28:23;;;;;;;141.85;35.10;;;5.90;99.90;;;;;;5003885;28;20049;-62
2022/01/13 11:30:51;;;;;;;136.73;36.65;;;5.90;99.90;;;;;;5021569;28;20470;-62
2022/01/13 11:33:18;;;;;;;148.55;35.95;;;5.90;99.90;;;;;;5010846;28;20042;-63
2022/01/13 11:35:50;;;;;;;139.23;37.38;;;5.90;99.90;;;;;;4974836;28;20053;-62
2022/01/13 11:38:18;;;;;;;133.27;38.55;;;5.90;99.90;;;;;;5007659;28;20321;-62
2022/01/13 11:40:50;;;;;;;147.88;37.25;;;5.90;99.90;;;;;;5019595;28;20514;-62
2022/01/13 11:43:38;;;;;;;128.80;38.28;;;5.90;99.90;;;;;;5024834;28;20041;-63
2022/01/13 11:46:26;;;;;;;133.20;36.30;;;5.90;99.90;;;;;;4991735;28;20219;-65
2022/01/13 11:49:09;;;;;;;131.27;35.72;;;5.90;99.90;;;;;;4982756;28;20488;-62
2022/01/13 11:51:56;;;;;;;151.50;37.70;;;5.90;99.90;;;;;;4997801;28;20128;-62
2022/01/13 11:54:36;;;;;;;150.27;36.65;;;5.90;99.90;;;;;;5000345;28;20047;-62
2022/01/13 11:57:22;;;;;;;156.60;38.45;;;6.00;99.90;;;;;;5004577;28;20044;-62
2022/01/13 12:00:19;;;;;;;153.48;38.03;;;5.90;99.90;;;;;;4968583;28;20502;-62
2022/01/13 12:02:45;;;;;;;165.65;39.10;;;6.00;99.90;;;;;;5013006;28;20531;-61
2022/01/13 12:05:20;;;;;;;172.57;40.67;;;6.00;99.90;;;;;;5004029;28;20495;-62
2022/01/13 12:07:50;;;;;;;170.77;37.75;;;6.00;99.90;;;;;;5003714;28;20142;-62
2022/01/13 12:10:34;;;;;;;139.23;36.63;;;6.00;99.90;;;;;;4998255;28;20053;-62
2022/01/13 12:13:00;;;;;;;173.20;41.67;;;6.00;99.90;;;;;;5021800;28;20082;-67
2022/01/13 12:15:31;;;;;;;161.05;40.20;;;6.00;99.90;;;;;;5010832;28;20097;-64
2022/01/13 12:18:05;;;;;;;146.35;37.53;;;6.00;99.90;;;;;;5007426;28;20049;-67
2022/01/13 12:20:58;;;;;;;133.32;38.33;;;6.00;99.90;;;;;;5020096;28;20049;-64
2022/01/13 12:23:39;;;;;;;137.65;35.65;;;6.00;99.90;;;;;;5025232;28;20049;-65
2022/01/13 12:26:31;;;;;;;157.95;40.88;;;6.00;99.90;;;;;;5024074;28;20046;-65
2022/01/13 12:29:10;;;;;;;156.32;39.58;;;6.00;99.90;;;;;;4996425;28;20136;-65
2022/01/13 12:31:53;;;;;;;148.57;38.83;;;6.00;99.90;;;;;;5018192;28;20053;-63
2022/01/13 12:34:47;;;;;;;152.05;39.30;;;6.00;99.90;;;;;;5005862;28;20045;-64
2022/01/13 12:37:13;;;;;;;158.63;39.15;;;6.00;99.90;;;;;;5013710;28;20041;-64
2022/01/13 12:39:45;;;;;;;158.95;39.88;;;6.00;99.90;;;;;;5021870;28;20045;-59
2022/01/13 12:42:17;;;;;;;152.57;40.15;;;6.00;99.90;;;;;;5007832;28;20085;-65
2022/01/13 12:47:29;;;;;;;164.23;37.45;;;6.00;99.90;;;;;;5008076;28;20493;-64
2022/01/13 12:49:55;;;;;;;160.32;38.42;;;6.00;99.90;;;;;;5025774;28;20064;-66
2022/01/13 12:52:24;;;;;;;163.85;39.63;;;6.00;99.90;;;;;;5007467;28;20496;-64
2022/01/13 12:54:51;;;;;;;154.40;41.15;;;6.00;99.90;;;;;;4998429;28;20129;-59
2022/01/13 12:57:18;;;;;;;189.73;40.97;;;6.00;99.90;;;;;;4991689;28;20049;-64
2022/01/13 12:59:45;;;;;;;173.10;40.22;;;6.10;99.90;;;;;;5018984;28;20045;-60
2022/01/13 13:02:11;;;;;;;187.65;42.70;;;6.10;99.90;;;;;;5023605;28;20046;-60
2022/01/13 13:04:38;;;;;;;177.20;41.70;;;6.10;99.90;;;;;;5028159;28;20045;-59
2022/01/13 13:07:07;;;;;;;176.32;42.35;;;6.10;99.90;;;;;;5011362;28;20400;-59
2022/01/13 13:09:34;;;;;;;174.40;41.88;;;6.10;99.90;;;;;;4994519;28;20132;-60
2022/01/13 13:12:03;;;;;;;175.65;42.03;;;6.10;99.90;;;;;;4974046;28;20081;-60
2022/01/13 13:14:39;;;;;;;167.50;42.40;;;6.10;99.90;;;;;;4992015;28;20049;-59
2022/01/13 13:17:05;;;;;;;202.23;45.63;;;6.10;99.90;;;;;;5009469;28;20045;-59